sensor_id;sensor_type;location;lat;lon;timestamp;P1;durP1;ratioP1;P2;durP2;ratioP2
8550;SDS011;4313;42.000;21.380;2023-03-01T00:01:16;38.80;;;26.23;;
8550;SDS011;4313;42.000;21.380;2023-03-01T00:03:47;37.43;;;26.10;;
8550;SDS011;4313;42.000;21.380;2023-03-01T00:06:14;42.93;;;26.23;;
8550;SDS011;4313;42.000;21.380;2023-03-01T00:08:42;38.60;;;26.20;;
8550;SDS011;4313;42.000;21.380;2023-03-01T00:11:10;38.87;;;26.33;;
8550;SDS011;4313;42.000;21.380;2023-03-01T00:13:40;36.23;;;25.83;;
8550;SDS011;4313;42.000;21.380;2023-03-01T00:16:09;36.90;;;26.23;;
8550;SDS011;4313;42.000;21.380;2023-03-01T00:18:38;40.20;;;25.43;;
8550;SDS011;4313;42.000;21.380;2023-03-01T00:21:08;34.90;;;25.00;;
8550;SDS011;4313;42.000;21.380;2023-03-01T00:23:36;38.23;;;25.80;;
8550;SDS011;4313;42.000;21.380;2023-03-01T00:26:05;42.00;;;26.43;;
8550;SDS011;4313;42.000;21.380;2023-03-01T00:28:34;40.73;;;25.67;;
8550;SDS011;4313;42.000;21.380;2023-03-01T00:31:03;36.20;;;25.43;;
8550;SDS011;4313;42.000;21.380;2023-03-01T00:33:31;40.40;;;26.00;;
8550;SDS011;4313;42.000;21.380;2023-03-01T00:35:58;39.03;;;26.23;;
8550;SDS011;4313;42.000;21.380;2023-03-01T00:38:28;36.70;;;24.60;;
8550;SDS011;4313;42.000;21.380;2023-03-01T00:40:55;34.73;;;25.20;;
8550;SDS011;4313;42.000;21.380;2023-03-01T00:43:22;35.70;;;24.60;;
8550;SDS011;4313;42.000;21.380;2023-03-01T00:45:50;39.27;;;25.67;;
8550;SDS011;4313;42.000;21.380;2023-03-01T00:48:17;41.40;;;25.20;;
8550;SDS011;4313;42.000;21.380;2023-03-01T00:50:44;35.33;;;24.63;;
8550;SDS011;4313;42.000;21.380;2023-03-01T00:53:11;34.00;;;24.37;;
8550;SDS011;4313;42.000;21.380;2023-03-01T00:55:40;37.53;;;25.43;;
8550;SDS011;4313;42.000;21.380;2023-03-01T00:58:08;39.73;;;26.13;;
8550;SDS011;4313;42.000;21.380;2023-03-01T01:00:35;37.37;;;25.53;;
8550;SDS011;4313;42.000;21.380;2023-03-01T01:03:02;38.57;;;25.90;;
8550;SDS011;4313;42.000;21.380;2023-03-01T01:05:30;35.23;;;24.57;;
8550;SDS011;4313;42.000;21.380;2023-03-01T01:07:57;35.73;;;24.23;;
8550;SDS011;4313;42.000;21.380;2023-03-01T01:10:24;37.80;;;23.93;;
8550;SDS011;4313;42.000;21.380;2023-03-01T01:12:53;35.97;;;24.70;;
8550;SDS011;4313;42.000;21.380;2023-03-01T01:15:21;38.10;;;24.60;;
8550;SDS011;4313;42.000;21.380;2023-03-01T01:17:49;36.73;;;25.73;;
8550;SDS011;4313;42.000;21.380;2023-03-01T01:20:16;39.00;;;24.97;;
8550;SDS011;4313;42.000;21.380;2023-03-01T01:22:43;38.33;;;25.20;;
8550;SDS011;4313;42.000;21.380;2023-03-01T01:25:11;41.80;;;26.00;;
8550;SDS011;4313;42.000;21.380;2023-03-01T01:27:38;42.60;;;26.17;;
8550;SDS011;4313;42.000;21.380;2023-03-01T01:30:08;36.50;;;25.93;;
8550;SDS011;4313;42.000;21.380;2023-03-01T01:32:36;41.03;;;24.73;;
8550;SDS011;4313;42.000;21.380;2023-03-01T01:35:03;39.63;;;25.30;;
8550;SDS011;4313;42.000;21.380;2023-03-01T01:37:31;40.53;;;25.73;;
8550;SDS011;4313;42.000;21.380;2023-03-01T01:39:58;38.60;;;25.47;;
8550;SDS011;4313;42.000;21.380;2023-03-01T01:42:28;41.77;;;24.97;;
8550;SDS011;4313;42.000;21.380;2023-03-01T01:48:02;37.40;;;25.67;;
8550;SDS011;4313;42.000;21.380;2023-03-01T01:50:31;37.33;;;24.93;;
8550;SDS011;4313;42.000;21.380;2023-03-01T01:53:04;41.73;;;25.37;;
8550;SDS011;4313;42.000;21.380;2023-03-01T01:55:32;37.60;;;25.70;;
8550;SDS011;4313;42.000;21.380;2023-03-01T01:58:02;39.97;;;27.50;;
8550;SDS011;4313;42.000;21.380;2023-03-01T02:00:33;40.37;;;25.30;;
8550;SDS011;4313;42.000;21.380;2023-03-01T02:03:01;36.87;;;25.80;;
8550;SDS011;4313;42.000;21.380;2023-03-01T02:05:33;38.17;;;25.17;;
8550;SDS011;4313;42.000;21.380;2023-03-01T02:08:03;38.20;;;25.97;;
8550;SDS011;4313;42.000;21.380;2023-03-01T02:10:31;37.77;;;25.77;;
8550;SDS011;4313;42.000;21.380;2023-03-01T02:13:01;44.60;;;26.57;;
8550;SDS011;4313;42.000;21.380;2023-03-01T02:15:31;40.10;;;27.70;;
8550;SDS011;4313;42.000;21.380;2023-03-01T02:18:00;40.17;;;27.03;;
8550;SDS011;4313;42.000;21.380;2023-03-01T02:20:30;40.10;;;27.23;;
8550;SDS011;4313;42.000;21.380;2023-03-01T02:23:01;38.17;;;25.83;;
8550;SDS011;4313;42.000;21.380;2023-03-01T02:25:35;35.57;;;24.53;;
8550;SDS011;4313;42.000;21.380;2023-03-01T02:28:08;35.20;;;24.40;;
8550;SDS011;4313;42.000;21.380;2023-03-01T02:30:46;40.97;;;26.40;;
8550;SDS011;4313;42.000;21.380;2023-03-01T02:33:29;37.53;;;24.43;;
8550;SDS011;4313;42.000;21.380;2023-03-01T02:35:58;34.08;;;23.67;;
8550;SDS011;4313;42.000;21.380;2023-03-01T02:38:25;37.27;;;24.27;;
8550;SDS011;4313;42.000;21.380;2023-03-01T02:40:53;33.53;;;23.40;;
8550;SDS011;4313;42.000;21.380;2023-03-01T02:43:24;33.50;;;22.70;;
8550;SDS011;4313;42.000;21.380;2023-03-01T02:45:58;35.10;;;20.90;;
8550;SDS011;4313;42.000;21.380;2023-03-01T02:48:38;33.73;;;21.37;;
8550;SDS011;4313;42.000;21.380;2023-03-01T02:51:09;30.30;;;21.17;;
8550;SDS011;4313;42.000;21.380;2023-03-01T02:53:44;31.27;;;21.43;;
8550;SDS011;4313;42.000;21.380;2023-03-01T02:56:15;33.20;;;21.70;;
8550;SDS011;4313;42.000;21.380;2023-03-01T02:58:43;33.90;;;20.73;;
8550;SDS011;4313;42.000;21.380;2023-03-01T03:01:16;35.33;;;22.60;;
8550;SDS011;4313;42.000;21.380;2023-03-01T03:03:43;30.90;;;20.90;;
8550;SDS011;4313;42.000;21.380;2023-03-01T03:06:11;33.87;;;21.20;;
8550;SDS011;4313;42.000;21.380;2023-03-01T03:08:40;31.70;;;21.30;;
8550;SDS011;4313;42.000;21.380;2023-03-01T03:11:08;31.00;;;21.73;;
8550;SDS011;4313;42.000;21.380;2023-03-01T03:13:35;33.90;;;22.73;;
8550;SDS011;4313;42.000;21.380;2023-03-01T03:16:05;31.90;;;21.80;;
8550;SDS011;4313;42.000;21.380;2023-03-01T03:18:33;34.10;;;22.87;;
8550;SDS011;4313;42.000;21.380;2023-03-01T03:21:00;32.13;;;23.03;;
8550;SDS011;4313;42.000;21.380;2023-03-01T03:23:27;29.83;;;20.70;;
8550;SDS011;4313;42.000;21.380;2023-03-01T03:25:55;32.77;;;21.43;;
8550;SDS011;4313;42.000;21.380;2023-03-01T03:28:22;34.17;;;21.63;;
8550;SDS011;4313;42.000;21.380;2023-03-01T03:30:49;33.93;;;21.43;;
8550;SDS011;4313;42.000;21.380;2023-03-01T03:33:18;33.20;;;21.47;;
8550;SDS011;4313;42.000;21.380;2023-03-01T03:35:47;32.47;;;21.80;;
8550;SDS011;4313;42.000;21.380;2023-03-01T03:38:15;34.27;;;22.43;;
8550;SDS011;4313;42.000;21.380;2023-03-01T03:40:44;31.93;;;21.20;;
8550;SDS011;4313;42.000;21.380;2023-03-01T03:43:14;32.13;;;21.33;;
8550;SDS011;4313;42.000;21.380;2023-03-01T03:45:43;30.60;;;20.77;;
8550;SDS011;4313;42.000;21.380;2023-03-01T03:48:11;29.17;;;20.67;;
8550;SDS011;4313;42.000;21.380;2023-03-01T03:50:39;30.83;;;20.47;;
8550;SDS011;4313;42.000;21.380;2023-03-01T03:53:09;31.43;;;21.57;;
8550;SDS011;4313;42.000;21.380;2023-03-01T03:55:37;29.97;;;20.93;;
8550;SDS011;4313;42.000;21.380;2023-03-01T03:58:05;30.60;;;19.73;;
8550;SDS011;4313;42.000;21.380;2023-03-01T04:00:33;31.83;;;20.27;;
8550;SDS011;4313;42.000;21.380;2023-03-01T04:03:01;27.63;;;19.43;;
8550;SDS011;4313;42.000;21.380;2023-03-01T04:05:29;28.03;;;20.10;;
8550;SDS011;4313;42.000;21.380;2023-03-01T04:07:58;30.17;;;20.77;;
8550;SDS011;4313;42.000;21.380;2023-03-01T04:10:29;29.53;;;21.00;;
8550;SDS011;4313;42.000;21.380;2023-03-01T04:12:57;29.73;;;19.90;;
8550;SDS011;4313;42.000;21.380;2023-03-01T04:15:26;27.47;;;18.63;;
8550;SDS011;4313;42.000;21.380;2023-03-01T04:17:54;29.83;;;19.33;;
8550;SDS011;4313;42.000;21.380;2023-03-01T04:20:22;27.13;;;18.97;;
8550;SDS011;4313;42.000;21.380;2023-03-01T04:22:51;25.87;;;18.13;;
8550;SDS011;4313;42.000;21.380;2023-03-01T04:25:22;26.80;;;19.00;;
8550;SDS011;4313;42.000;21.380;2023-03-01T04:27:51;28.87;;;20.37;;
8550;SDS011;4313;42.000;21.380;2023-03-01T04:30:18;32.70;;;22.47;;
8550;SDS011;4313;42.000;21.380;2023-03-01T04:32:45;31.70;;;21.03;;
8550;SDS011;4313;42.000;21.380;2023-03-01T04:35:12;29.87;;;19.97;;
8550;SDS011;4313;42.000;21.380;2023-03-01T04:37:40;30.23;;;21.50;;
8550;SDS011;4313;42.000;21.380;2023-03-01T04:40:07;27.63;;;19.00;;
8550;SDS011;4313;42.000;21.380;2023-03-01T04:42:42;25.07;;;18.20;;
8550;SDS011;4313;42.000;21.380;2023-03-01T04:45:10;24.80;;;17.20;;
8550;SDS011;4313;42.000;21.380;2023-03-01T04:47:40;23.80;;;17.17;;
8550;SDS011;4313;42.000;21.380;2023-03-01T04:50:09;24.23;;;16.90;;
8550;SDS011;4313;42.000;21.380;2023-03-01T04:52:37;26.77;;;17.03;;
8550;SDS011;4313;42.000;21.380;2023-03-01T04:55:05;21.47;;;16.40;;
8550;SDS011;4313;42.000;21.380;2023-03-01T04:57:33;24.53;;;16.33;;
8550;SDS011;4313;42.000;21.380;2023-03-01T05:00:20;24.03;;;16.60;;
8550;SDS011;4313;42.000;21.380;2023-03-01T05:02:49;24.53;;;17.07;;
8550;SDS011;4313;42.000;21.380;2023-03-01T05:05:19;22.13;;;16.60;;
8550;SDS011;4313;42.000;21.380;2023-03-01T05:07:52;24.00;;;17.27;;
8550;SDS011;4313;42.000;21.380;2023-03-01T05:10:20;25.50;;;17.87;;
8550;SDS011;4313;42.000;21.380;2023-03-01T05:12:47;25.13;;;17.40;;
8550;SDS011;4313;42.000;21.380;2023-03-01T05:15:14;24.97;;;16.77;;
8550;SDS011;4313;42.000;21.380;2023-03-01T05:17:43;23.77;;;17.83;;
8550;SDS011;4313;42.000;21.380;2023-03-01T05:20:11;23.00;;;17.10;;
8550;SDS011;4313;42.000;21.380;2023-03-01T05:22:38;25.73;;;17.37;;
8550;SDS011;4313;42.000;21.380;2023-03-01T05:25:05;25.43;;;18.60;;
8550;SDS011;4313;42.000;21.380;2023-03-01T05:27:34;26.00;;;18.77;;
8550;SDS011;4313;42.000;21.380;2023-03-01T05:30:02;26.20;;;17.57;;
8550;SDS011;4313;42.000;21.380;2023-03-01T05:32:43;26.53;;;16.73;;
8550;SDS011;4313;42.000;21.380;2023-03-01T05:35:11;22.97;;;17.87;;
8550;SDS011;4313;42.000;21.380;2023-03-01T05:37:40;23.87;;;16.93;;
8550;SDS011;4313;42.000;21.380;2023-03-01T05:40:09;24.13;;;17.33;;
8550;SDS011;4313;42.000;21.380;2023-03-01T05:42:41;25.67;;;18.60;;
8550;SDS011;4313;42.000;21.380;2023-03-01T05:45:10;28.60;;;18.20;;
8550;SDS011;4313;42.000;21.380;2023-03-01T05:47:38;29.00;;;19.73;;
8550;SDS011;4313;42.000;21.380;2023-03-01T05:50:13;27.70;;;19.60;;
8550;SDS011;4313;42.000;21.380;2023-03-01T05:52:44;25.43;;;17.93;;
8550;SDS011;4313;42.000;21.380;2023-03-01T05:55:13;26.87;;;18.80;;
8550;SDS011;4313;42.000;21.380;2023-03-01T05:57:41;25.03;;;18.27;;
8550;SDS011;4313;42.000;21.380;2023-03-01T06:00:09;24.67;;;17.93;;
8550;SDS011;4313;42.000;21.380;2023-03-01T06:02:40;27.50;;;19.47;;
8550;SDS011;4313;42.000;21.380;2023-03-01T06:05:08;26.50;;;18.20;;
8550;SDS011;4313;42.000;21.380;2023-03-01T06:07:38;27.13;;;18.23;;
8550;SDS011;4313;42.000;21.380;2023-03-01T06:10:06;23.57;;;17.77;;
8550;SDS011;4313;42.000;21.380;2023-03-01T06:12:35;25.60;;;18.77;;
8550;SDS011;4313;42.000;21.380;2023-03-01T06:15:04;23.63;;;17.83;;
8550;SDS011;4313;42.000;21.380;2023-03-01T06:17:35;23.87;;;18.20;;
8550;SDS011;4313;42.000;21.380;2023-03-01T06:20:04;25.30;;;18.70;;
8550;SDS011;4313;42.000;21.380;2023-03-01T06:22:32;26.30;;;17.93;;
8550;SDS011;4313;42.000;21.380;2023-03-01T06:25:01;26.83;;;18.50;;
8550;SDS011;4313;42.000;21.380;2023-03-01T06:27:30;24.97;;;17.63;;
8550;SDS011;4313;42.000;21.380;2023-03-01T06:29:57;28.63;;;19.13;;
8550;SDS011;4313;42.000;21.380;2023-03-01T06:32:27;23.53;;;17.70;;
8550;SDS011;4313;42.000;21.380;2023-03-01T06:34:55;30.07;;;19.03;;
8550;SDS011;4313;42.000;21.380;2023-03-01T06:37:23;28.60;;;17.40;;
8550;SDS011;4313;42.000;21.380;2023-03-01T06:39:51;24.60;;;16.70;;
8550;SDS011;4313;42.000;21.380;2023-03-01T06:42:21;24.60;;;16.73;;
8550;SDS011;4313;42.000;21.380;2023-03-01T06:44:48;23.97;;;17.70;;
8550;SDS011;4313;42.000;21.380;2023-03-01T06:47:16;29.67;;;20.20;;
8550;SDS011;4313;42.000;21.380;2023-03-01T06:49:43;28.40;;;19.43;;
8550;SDS011;4313;42.000;21.380;2023-03-01T06:52:10;28.70;;;21.10;;
8550;SDS011;4313;42.000;21.380;2023-03-01T06:54:41;28.77;;;19.40;;
8550;SDS011;4313;42.000;21.380;2023-03-01T06:57:08;29.13;;;20.03;;
8550;SDS011;4313;42.000;21.380;2023-03-01T06:59:37;30.00;;;20.57;;
8550;SDS011;4313;42.000;21.380;2023-03-01T07:02:04;29.17;;;20.50;;
8550;SDS011;4313;42.000;21.380;2023-03-01T07:04:32;33.47;;;21.57;;
8550;SDS011;4313;42.000;21.380;2023-03-01T07:06:59;27.70;;;20.13;;
8550;SDS011;4313;42.000;21.380;2023-03-01T07:09:29;30.13;;;21.00;;
8550;SDS011;4313;42.000;21.380;2023-03-01T07:11:59;30.83;;;19.67;;
8550;SDS011;4313;42.000;21.380;2023-03-01T07:14:26;29.73;;;22.33;;
8550;SDS011;4313;42.000;21.380;2023-03-01T07:16:56;41.67;;;23.10;;
8550;SDS011;4313;42.000;21.380;2023-03-01T07:19:24;34.87;;;23.30;;
8550;SDS011;4313;42.000;21.380;2023-03-01T07:21:54;38.40;;;25.77;;
8550;SDS011;4313;42.000;21.380;2023-03-01T07:24:21;36.27;;;21.97;;
8550;SDS011;4313;42.000;21.380;2023-03-01T07:26:48;31.03;;;21.60;;
8550;SDS011;4313;42.000;21.380;2023-03-01T07:29:16;36.03;;;23.03;;
8550;SDS011;4313;42.000;21.380;2023-03-01T07:31:44;32.47;;;22.63;;
8550;SDS011;4313;42.000;21.380;2023-03-01T07:34:12;29.00;;;21.63;;
8550;SDS011;4313;42.000;21.380;2023-03-01T07:36:39;29.87;;;21.07;;
8550;SDS011;4313;42.000;21.380;2023-03-01T07:39:10;28.03;;;19.40;;
8550;SDS011;4313;42.000;21.380;2023-03-01T07:41:37;28.73;;;19.67;;
8550;SDS011;4313;42.000;21.380;2023-03-01T07:44:05;26.90;;;20.97;;
8550;SDS011;4313;42.000;21.380;2023-03-01T07:46:32;32.80;;;21.97;;
8550;SDS011;4313;42.000;21.380;2023-03-01T07:48:59;31.60;;;21.27;;
8550;SDS011;4313;42.000;21.380;2023-03-01T07:51:28;27.97;;;20.60;;
8550;SDS011;4313;42.000;21.380;2023-03-01T07:53:55;31.67;;;19.63;;
8550;SDS011;4313;42.000;21.380;2023-03-01T07:56:23;29.87;;;19.93;;
8550;SDS011;4313;42.000;21.380;2023-03-01T07:58:50;26.63;;;19.60;;
8550;SDS011;4313;42.000;21.380;2023-03-01T08:01:19;23.30;;;17.90;;
8550;SDS011;4313;42.000;21.380;2023-03-01T08:03:47;30.87;;;19.07;;
8550;SDS011;4313;42.000;21.380;2023-03-01T08:06:15;30.53;;;19.70;;
8550;SDS011;4313;42.000;21.380;2023-03-01T08:08:44;27.60;;;19.90;;
8550;SDS011;4313;42.000;21.380;2023-03-01T08:11:13;27.17;;;18.33;;
8550;SDS011;4313;42.000;21.380;2023-03-01T08:13:41;24.57;;;17.70;;
8550;SDS011;4313;42.000;21.380;2023-03-01T08:16:10;22.87;;;16.93;;
8550;SDS011;4313;42.000;21.380;2023-03-01T08:18:38;23.60;;;16.73;;
8550;SDS011;4313;42.000;21.380;2023-03-01T08:21:07;25.33;;;17.10;;
8550;SDS011;4313;42.000;21.380;2023-03-01T08:23:35;25.33;;;18.27;;
8550;SDS011;4313;42.000;21.380;2023-03-01T08:26:05;23.40;;;17.50;;
8550;SDS011;4313;42.000;21.380;2023-03-01T08:28:35;24.87;;;19.30;;
8550;SDS011;4313;42.000;21.380;2023-03-01T08:31:02;28.40;;;20.90;;
8550;SDS011;4313;42.000;21.380;2023-03-01T08:33:30;35.57;;;21.83;;
8550;SDS011;4313;42.000;21.380;2023-03-01T08:36:04;28.07;;;20.63;;
8550;SDS011;4313;42.000;21.380;2023-03-01T08:38:32;30.97;;;21.70;;
8550;SDS011;4313;42.000;21.380;2023-03-01T08:41:00;29.80;;;20.40;;
8550;SDS011;4313;42.000;21.380;2023-03-01T08:43:29;30.13;;;21.10;;
8550;SDS011;4313;42.000;21.380;2023-03-01T08:45:56;26.83;;;20.60;;
8550;SDS011;4313;42.000;21.380;2023-03-01T08:48:23;31.13;;;21.70;;
8550;SDS011;4313;42.000;21.380;2023-03-01T08:50:50;28.70;;;21.63;;
8550;SDS011;4313;42.000;21.380;2023-03-01T08:53:17;24.57;;;19.10;;
8550;SDS011;4313;42.000;21.380;2023-03-01T08:55:45;27.67;;;20.50;;
8550;SDS011;4313;42.000;21.380;2023-03-01T08:58:12;29.50;;;21.20;;
8550;SDS011;4313;42.000;21.380;2023-03-01T09:00:41;26.87;;;20.40;;
8550;SDS011;4313;42.000;21.380;2023-03-01T09:03:09;27.97;;;20.33;;
8550;SDS011;4313;42.000;21.380;2023-03-01T09:05:37;31.23;;;22.67;;
8550;SDS011;4313;42.000;21.380;2023-03-01T09:08:04;27.93;;;21.13;;
8550;SDS011;4313;42.000;21.380;2023-03-01T09:10:37;28.07;;;20.13;;
8550;SDS011;4313;42.000;21.380;2023-03-01T09:13:04;27.53;;;20.27;;
8550;SDS011;4313;42.000;21.380;2023-03-01T09:15:32;29.53;;;20.07;;
8550;SDS011;4313;42.000;21.380;2023-03-01T09:18:01;27.03;;;19.57;;
8550;SDS011;4313;42.000;21.380;2023-03-01T09:20:28;28.88;;;21.27;;
8550;SDS011;4313;42.000;21.380;2023-03-01T09:22:57;30.50;;;21.80;;
8550;SDS011;4313;42.000;21.380;2023-03-01T09:25:24;28.83;;;21.33;;
8550;SDS011;4313;42.000;21.380;2023-03-01T09:27:52;27.73;;;20.63;;
8550;SDS011;4313;42.000;21.380;2023-03-01T09:30:19;26.57;;;21.47;;
8550;SDS011;4313;42.000;21.380;2023-03-01T09:32:46;29.87;;;21.93;;
8550;SDS011;4313;42.000;21.380;2023-03-01T09:35:16;25.83;;;21.27;;
8550;SDS011;4313;42.000;21.380;2023-03-01T09:37:45;30.03;;;22.03;;
8550;SDS011;4313;42.000;21.380;2023-03-01T09:40:14;28.40;;;22.23;;
8550;SDS011;4313;42.000;21.380;2023-03-01T09:42:48;28.90;;;21.83;;
8550;SDS011;4313;42.000;21.380;2023-03-01T09:45:21;35.40;;;23.20;;
8550;SDS011;4313;42.000;21.380;2023-03-01T09:47:52;31.07;;;22.73;;
8550;SDS011;4313;42.000;21.380;2023-03-01T09:50:23;36.83;;;24.23;;
8550;SDS011;4313;42.000;21.380;2023-03-01T09:52:54;31.90;;;24.07;;
8550;SDS011;4313;42.000;21.380;2023-03-01T09:55:27;29.03;;;23.63;;
8550;SDS011;4313;42.000;21.380;2023-03-01T09:57:59;31.35;;;22.73;;
8550;SDS011;4313;42.000;21.380;2023-03-01T10:00:33;34.08;;;23.48;;
8550;SDS011;4313;42.000;21.380;2023-03-01T10:03:11;32.97;;;24.77;;
8550;SDS011;4313;42.000;21.380;2023-03-01T10:05:46;31.33;;;23.60;;
8550;SDS011;4313;42.000;21.380;2023-03-01T10:08:32;30.35;;;24.05;;
8550;SDS011;4313;42.000;21.380;2023-03-01T10:11:23;32.57;;;23.67;;
8550;SDS011;4313;42.000;21.380;2023-03-01T10:13:55;34.45;;;25.33;;
8550;SDS011;4313;42.000;21.380;2023-03-01T10:16:28;31.33;;;24.10;;
8550;SDS011;4313;42.000;21.380;2023-03-01T10:19:05;33.53;;;24.95;;
8550;SDS011;4313;42.000;21.380;2023-03-01T10:21:40;30.67;;;23.33;;
8550;SDS011;4313;42.000;21.380;2023-03-01T10:24:10;31.77;;;23.37;;
8550;SDS011;4313;42.000;21.380;2023-03-01T10:26:43;30.20;;;24.65;;
8550;SDS011;4313;42.000;21.380;2023-03-01T10:29:14;33.20;;;24.88;;
8550;SDS011;4313;42.000;21.380;2023-03-01T10:31:42;32.92;;;24.42;;
8550;SDS011;4313;42.000;21.380;2023-03-01T10:34:10;33.33;;;25.75;;
8550;SDS011;4313;42.000;21.380;2023-03-01T10:36:41;37.97;;;26.83;;
8550;SDS011;4313;42.000;21.380;2023-03-01T10:39:11;34.47;;;27.60;;
8550;SDS011;4313;42.000;21.380;2023-03-01T10:44:46;34.47;;;26.70;;
8550;SDS011;4313;42.000;21.380;2023-03-01T10:47:16;35.93;;;28.20;;
8550;SDS011;4313;42.000;21.380;2023-03-01T10:49:53;37.83;;;29.70;;
8550;SDS011;4313;42.000;21.380;2023-03-01T10:52:25;38.67;;;29.73;;
8550;SDS011;4313;42.000;21.380;2023-03-01T10:54:56;37.97;;;28.30;;
8550;SDS011;4313;42.000;21.380;2023-03-01T10:57:28;35.70;;;26.63;;
8550;SDS011;4313;42.000;21.380;2023-03-01T11:00:14;37.27;;;26.17;;
8550;SDS011;4313;42.000;21.380;2023-03-01T11:02:48;37.67;;;27.77;;
8550;SDS011;4313;42.000;21.380;2023-03-01T11:05:18;38.20;;;28.13;;
8550;SDS011;4313;42.000;21.380;2023-03-01T11:07:51;38.43;;;28.57;;
8550;SDS011;4313;42.000;21.380;2023-03-01T11:10:21;36.67;;;27.57;;
8550;SDS011;4313;42.000;21.380;2023-03-01T11:12:53;36.67;;;28.50;;
8550;SDS011;4313;42.000;21.380;2023-03-01T11:15:22;36.13;;;28.58;;
8550;SDS011;4313;42.000;21.380;2023-03-01T11:17:53;35.88;;;27.83;;
8550;SDS011;4313;42.000;21.380;2023-03-01T11:20:34;39.70;;;28.58;;
8550;SDS011;4313;42.000;21.380;2023-03-01T11:23:10;39.07;;;29.13;;
8550;SDS011;4313;42.000;21.380;2023-03-01T11:25:42;38.50;;;29.37;;
8550;SDS011;4313;42.000;21.380;2023-03-01T11:28:11;38.93;;;28.70;;
8550;SDS011;4313;42.000;21.380;2023-03-01T11:30:43;36.40;;;29.73;;
8550;SDS011;4313;42.000;21.380;2023-03-01T11:33:16;37.83;;;28.73;;
8550;SDS011;4313;42.000;21.380;2023-03-01T11:35:47;37.83;;;28.80;;
8550;SDS011;4313;42.000;21.380;2023-03-01T11:38:23;38.60;;;29.77;;
8550;SDS011;4313;42.000;21.380;2023-03-01T11:40:54;36.97;;;28.77;;
8550;SDS011;4313;42.000;21.380;2023-03-01T11:43:30;39.83;;;30.08;;
8550;SDS011;4313;42.000;21.380;2023-03-01T11:46:08;37.87;;;28.57;;
8550;SDS011;4313;42.000;21.380;2023-03-01T11:48:57;40.38;;;27.38;;
8550;SDS011;4313;42.000;21.380;2023-03-01T11:51:35;35.65;;;28.15;;
8550;SDS011;4313;42.000;21.380;2023-03-01T11:54:20;36.93;;;28.43;;
8550;SDS011;4313;42.000;21.380;2023-03-01T11:56:54;34.45;;;28.25;;
8550;SDS011;4313;42.000;21.380;2023-03-01T11:59:31;35.80;;;29.23;;
8550;SDS011;4313;42.000;21.380;2023-03-01T12:02:20;35.72;;;28.75;;
8550;SDS011;4313;42.000;21.380;2023-03-01T12:05:12;38.38;;;29.02;;
8550;SDS011;4313;42.000;21.380;2023-03-01T12:08:00;38.13;;;29.08;;
8550;SDS011;4313;42.000;21.380;2023-03-01T12:10:35;35.95;;;28.70;;
8550;SDS011;4313;42.000;21.380;2023-03-01T12:13:18;41.10;;;30.45;;
8550;SDS011;4313;42.000;21.380;2023-03-01T12:16:00;37.40;;;29.00;;
8550;SDS011;4313;42.000;21.380;2023-03-01T12:18:41;38.08;;;28.40;;
8550;SDS011;4313;42.000;21.380;2023-03-01T12:21:19;35.47;;;27.55;;
8550;SDS011;4313;42.000;21.380;2023-03-01T12:23:59;39.17;;;27.60;;
8550;SDS011;4313;42.000;21.380;2023-03-01T12:26:50;34.22;;;27.33;;
8550;SDS011;4313;42.000;21.380;2023-03-01T12:29:24;41.67;;;29.80;;
8550;SDS011;4313;42.000;21.380;2023-03-01T12:37:50;40.55;;;29.58;;
8550;SDS011;4313;42.000;21.380;2023-03-01T12:40:27;38.30;;;28.42;;
8550;SDS011;4313;42.000;21.380;2023-03-01T12:43:07;37.88;;;29.90;;
8550;SDS011;4313;42.000;21.380;2023-03-01T12:45:46;28.08;;;22.55;;
8550;SDS011;4313;42.000;21.380;2023-03-01T12:48:21;33.20;;;22.98;;
8550;SDS011;4313;42.000;21.380;2023-03-01T12:51:14;25.73;;;20.52;;
8550;SDS011;4313;42.000;21.380;2023-03-01T12:53:44;24.50;;;20.80;;
8550;SDS011;4313;42.000;21.380;2023-03-01T12:56:14;27.17;;;20.83;;
8550;SDS011;4313;42.000;21.380;2023-03-01T12:59:05;30.70;;;22.40;;
8550;SDS011;4313;42.000;21.380;2023-03-01T13:01:42;28.23;;;23.38;;
8550;SDS011;4313;42.000;21.380;2023-03-01T13:04:18;31.90;;;24.35;;
8550;SDS011;4313;42.000;21.380;2023-03-01T13:07:19;34.28;;;25.50;;
8550;SDS011;4313;42.000;21.380;2023-03-01T13:09:55;32.03;;;25.10;;
8550;SDS011;4313;42.000;21.380;2023-03-01T13:12:43;35.17;;;24.60;;
8550;SDS011;4313;42.000;21.380;2023-03-01T13:15:27;28.30;;;22.90;;
8550;SDS011;4313;42.000;21.380;2023-03-01T13:17:57;29.67;;;21.60;;
8550;SDS011;4313;42.000;21.380;2023-03-01T13:20:27;27.73;;;21.60;;
8550;SDS011;4313;42.000;21.380;2023-03-01T13:23:06;27.90;;;21.40;;
8550;SDS011;4313;42.000;21.380;2023-03-01T13:25:34;28.60;;;23.50;;
8550;SDS011;4313;42.000;21.380;2023-03-01T13:31:54;27.65;;;23.02;;
8550;SDS011;4313;42.000;21.380;2023-03-01T13:34:39;39.07;;;29.57;;
8550;SDS011;4313;42.000;21.380;2023-03-01T13:37:09;31.60;;;27.80;;
8550;SDS011;4313;42.000;21.380;2023-03-01T13:39:39;33.33;;;29.13;;
8550;SDS011;4313;42.000;21.380;2023-03-01T13:44:59;28.27;;;20.88;;
8550;SDS011;4313;42.000;21.380;2023-03-01T13:47:31;25.80;;;21.57;;
8550;SDS011;4313;42.000;21.380;2023-03-01T13:50:01;29.38;;;23.15;;
8550;SDS011;4313;42.000;21.380;2023-03-01T13:52:37;42.40;;;35.57;;
8550;SDS011;4313;42.000;21.380;2023-03-01T13:55:16;34.80;;;27.90;;
8550;SDS011;4313;42.000;21.380;2023-03-01T13:57:46;29.73;;;24.20;;
8550;SDS011;4313;42.000;21.380;2023-03-01T14:00:29;28.57;;;24.40;;
8550;SDS011;4313;42.000;21.380;2023-03-01T14:03:04;25.97;;;20.23;;
8550;SDS011;4313;42.000;21.380;2023-03-01T14:05:35;25.42;;;21.30;;
8550;SDS011;4313;42.000;21.380;2023-03-01T14:08:02;28.58;;;22.65;;
8550;SDS011;4313;42.000;21.380;2023-03-01T14:10:52;30.07;;;23.30;;
8550;SDS011;4313;42.000;21.380;2023-03-01T14:13:29;33.47;;;24.53;;
8550;SDS011;4313;42.000;21.380;2023-03-01T14:16:10;27.58;;;23.08;;
8550;SDS011;4313;42.000;21.380;2023-03-01T14:18:52;26.23;;;21.97;;
8550;SDS011;4313;42.000;21.380;2023-03-01T14:21:29;26.97;;;22.13;;
8550;SDS011;4313;42.000;21.380;2023-03-01T14:23:56;29.65;;;23.60;;
8550;SDS011;4313;42.000;21.380;2023-03-01T14:26:24;28.75;;;22.25;;
8550;SDS011;4313;42.000;21.380;2023-03-01T14:28:51;31.40;;;23.10;;
8550;SDS011;4313;42.000;21.380;2023-03-01T14:34:16;30.90;;;23.40;;
8550;SDS011;4313;42.000;21.380;2023-03-01T14:36:45;29.53;;;21.93;;
8550;SDS011;4313;42.000;21.380;2023-03-01T14:39:16;29.27;;;22.77;;
8550;SDS011;4313;42.000;21.380;2023-03-01T14:41:44;30.03;;;22.77;;
8550;SDS011;4313;42.000;21.380;2023-03-01T14:44:14;31.33;;;22.93;;
8550;SDS011;4313;42.000;21.380;2023-03-01T14:46:44;29.88;;;22.58;;
8550;SDS011;4313;42.000;21.380;2023-03-01T14:49:14;32.22;;;22.60;;
8550;SDS011;4313;42.000;21.380;2023-03-01T14:51:43;29.40;;;22.10;;
8550;SDS011;4313;42.000;21.380;2023-03-01T14:54:35;29.40;;;22.50;;
8550;SDS011;4313;42.000;21.380;2023-03-01T14:57:12;29.10;;;21.75;;
8550;SDS011;4313;42.000;21.380;2023-03-01T14:59:40;28.38;;;22.23;;
8550;SDS011;4313;42.000;21.380;2023-03-01T15:02:10;29.37;;;22.40;;
8550;SDS011;4313;42.000;21.380;2023-03-01T15:04:44;31.48;;;21.98;;
8550;SDS011;4313;42.000;21.380;2023-03-01T15:07:12;30.75;;;22.42;;
8550;SDS011;4313;42.000;21.380;2023-03-01T15:09:41;37.33;;;25.27;;
8550;SDS011;4313;42.000;21.380;2023-03-01T15:12:24;40.42;;;28.98;;
8550;SDS011;4313;42.000;21.380;2023-03-01T15:14:59;40.63;;;29.75;;
8550;SDS011;4313;42.000;21.380;2023-03-01T15:17:27;31.50;;;23.23;;